Terminal Aerodrome Forecast
Issued by NWS Northern Indiana

Home | Current Version | Previous Version | Graphics & Text | Print | Product List | Glossary On
Versions: 1 2 3 4 5 6 7 8 9 10 11 12 13 14 15 16
000
FTUS43 KIWX 050530
TAFFWA
TAF
KFWA 050530Z 0506/0606 21005KT P6SM SCT060 BKN120 BKN240
     FM050900 19003KT 5SM BR SCT040 BKN100
      TEMPO 0510/0512 2SM BR
     FM051400 22006KT P6SM SCT040=

USA.gov is the U.S. government's official web portal to all federal, state and local government web resources and services.